createdAt,value
2022-11-05T00:01:39.592Z,31.25
2022-11-05T00:05:01.229Z,27.50
2022-11-05T00:08:23.947Z,23.25
2022-11-05T00:11:43.013Z,24.25
2022-11-05T00:15:04.141Z,18.25
2022-11-05T00:18:07.837Z,16.50
2022-11-05T00:21:25.421Z,20.75
2022-11-05T00:24:46.296Z,20.00
2022-11-05T00:27:52.661Z,21.50
2022-11-05T00:31:01.798Z,19.75
2022-11-05T00:34:05.924Z,20.00
2022-11-05T00:37:09.684Z,13.50
2022-11-05T00:40:15.078Z,23.75
2022-11-05T00:43:37.318Z,24.50
2022-11-05T00:46:41.168Z,18.00
2022-11-05T00:49:43.830Z,15.75
2022-11-05T00:52:58.055Z,21.50
2022-11-05T00:56:02.093Z,23.00
2022-11-05T00:59:07.082Z,29.25
2022-11-05T01:02:10.850Z,21.50
2022-11-05T01:05:14.799Z,17.75
2022-11-05T01:08:21.650Z,19.75
2022-11-05T01:11:37.362Z,17.00
2022-11-05T01:14:42.713Z,16.25
2022-11-05T01:17:46.162Z,19.50
2022-11-05T01:20:50.567Z,26.00
2022-11-05T01:23:54.433Z,28.00
2022-11-05T01:26:58.122Z,19.00
2022-11-05T01:30:03.022Z,16.25
2022-11-05T01:33:07.324Z,15.00
2022-11-05T01:36:11.417Z,14.25
2022-11-05T01:39:15.265Z,11.00
2022-11-05T01:42:21.870Z,17.25
2022-11-05T01:45:28.460Z,20.25
2022-11-05T01:48:36.403Z,11.00
2022-11-05T01:51:40.673Z,19.00
2022-11-05T01:54:44.937Z,19.25
2022-11-05T01:57:48.868Z,28.00
2022-11-05T02:00:55.836Z,18.00
2022-11-05T02:04:02.558Z,18.50
2022-11-05T02:07:08.959Z,19.00
2022-11-05T02:10:15.621Z,29.25
2022-11-05T02:13:19.150Z,24.50
2022-11-05T02:16:37.706Z,17.00
2022-11-05T02:20:09.520Z,31.00
2022-11-05T02:23:45.265Z,14.75
2022-11-05T02:27:16.115Z,12.75
2022-11-05T02:30:43.590Z,12.25
2022-11-05T02:33:57.065Z,12.00
2022-11-05T02:37:14.304Z,14.50
2022-11-05T02:40:23.951Z,22.25
2022-11-05T02:43:38.081Z,19.25
2022-11-05T02:46:50.282Z,16.25
2022-11-05T02:50:02.463Z,23.25
2022-11-05T02:53:12.249Z,9.00
2022-11-05T02:56:21.441Z,12.00
2022-11-05T02:59:24.835Z,17.00
2022-11-05T03:02:30.183Z,13.25
2022-11-05T03:05:45.503Z,18.75
2022-11-05T03:09:09.217Z,15.50
2022-11-05T03:12:25.173Z,15.00
2022-11-05T03:15:43.099Z,12.00
2022-11-05T03:18:57.826Z,13.00
2022-11-05T03:22:06.217Z,14.75
2022-11-05T03:25:13.655Z,16.00
2022-11-05T03:28:22.381Z,20.00
2022-11-05T03:31:26.432Z,19.50
2022-11-05T03:34:36.983Z,18.75
2022-11-05T03:37:44.227Z,25.00
2022-11-05T03:40:52.874Z,20.25
2022-11-05T03:43:59.851Z,15.50
2022-11-05T03:47:07.230Z,17.25
2022-11-05T03:50:21.337Z,17.00
2022-11-05T03:53:29.207Z,14.75
2022-11-05T03:56:38.895Z,13.25
2022-11-05T03:59:45.158Z,12.00
2022-11-05T04:02:48.642Z,11.00
2022-11-05T04:06:13.833Z,14.75
2022-11-05T04:09:35.130Z,13.00
2022-11-05T04:12:56.054Z,13.00
2022-11-05T04:16:16.625Z,14.25
2022-11-05T04:19:41.581Z,12.00
2022-11-05T04:23:03.696Z,12.00
2022-11-05T04:26:07.508Z,12.25
2022-11-05T04:29:37.085Z,14.25
2022-11-05T04:32:40.907Z,13.75
2022-11-05T04:35:46.270Z,13.00
2022-11-05T04:38:51.391Z,20.75
2022-11-05T04:41:54.743Z,17.00
2022-11-05T04:44:59.556Z,14.00
2022-11-05T04:48:03.677Z,17.75
2022-11-05T04:51:07.767Z,19.00
2022-11-05T04:54:12.601Z,19.00
2022-11-05T04:57:16.294Z,16.25
2022-11-05T05:00:21.082Z,16.25
2022-11-05T05:03:24.745Z,19.00
2022-11-05T05:06:28.325Z,17.25
2022-11-05T05:09:33.517Z,18.50
2022-11-05T05:12:36.891Z,17.75
2022-11-05T05:15:40.590Z,18.25
2022-11-05T05:18:46.409Z,19.00
2022-11-05T05:21:49.315Z,20.00
2022-11-05T05:24:54.390Z,21.75
2022-11-05T05:27:58.687Z,22.00
2022-11-05T05:31:02.328Z,21.00
2022-11-05T05:34:07.200Z,19.25
2022-11-05T05:37:10.535Z,17.00
2022-11-05T05:40:15.655Z,26.50
2022-11-05T05:43:19.146Z,18.25
2022-11-05T05:46:22.850Z,23.00
2022-11-05T05:49:26.191Z,22.75
2022-11-05T05:52:29.812Z,22.00
2022-11-05T05:55:34.630Z,30.00
2022-11-05T05:58:40.467Z,25.00
2022-11-05T06:01:44.094Z,25.75
2022-11-05T06:04:48.953Z,24.00
2022-11-05T06:07:57.130Z,23.50
2022-11-05T06:11:03.726Z,20.75
2022-11-05T06:14:07.341Z,13.50
2022-11-05T06:17:11.396Z,22.25
2022-11-05T06:20:14.815Z,20.25
2022-11-05T06:23:18.698Z,24.00
2022-11-05T06:26:23.700Z,22.25
2022-11-05T06:29:27.479Z,15.75
2022-11-05T06:32:32.132Z,19.75
2022-11-05T06:35:36.116Z,18.50
2022-11-05T06:38:39.855Z,19.50
2022-11-05T06:42:11.884Z,21.00
2022-11-05T06:45:10.590Z,19.75
2022-11-05T06:48:14.512Z,21.50
2022-11-05T06:51:18.073Z,29.50
2022-11-05T06:54:22.414Z,30.00
2022-11-05T06:57:27.735Z,35.75
2022-11-05T07:00:32.077Z,31.00
2022-11-05T07:03:36.454Z,29.00
2022-11-05T07:06:40.458Z,30.25
2022-11-05T07:09:44.884Z,29.00
2022-11-05T07:12:50.425Z,27.75
2022-11-05T07:16:12.579Z,32.00
2022-11-05T07:19:16.571Z,31.00
2022-11-05T07:22:20.041Z,37.50
2022-11-05T07:25:24.258Z,39.00
2022-11-05T07:28:29.105Z,43.25
2022-11-05T07:31:32.838Z,42.75
2022-11-05T07:34:36.439Z,39.25
2022-11-05T07:37:44.939Z,41.50
2022-11-05T07:40:48.356Z,29.50
2022-11-05T07:43:53.569Z,30.00
2022-11-05T07:47:00.806Z,35.75
2022-11-05T07:50:05.863Z,33.75
2022-11-05T07:53:12.624Z,30.50
2022-11-05T07:56:16.648Z,32.00
2022-11-05T07:59:21.602Z,30.00
2022-11-05T08:02:26.729Z,27.00
2022-11-05T08:05:31.934Z,27.75
2022-11-05T08:08:35.645Z,23.75
2022-11-05T08:11:40.036Z,22.00
2022-11-05T08:14:48.306Z,31.00
2022-11-05T08:17:52.237Z,22.25
2022-11-05T08:20:56.090Z,28.25
2022-11-05T08:23:59.661Z,24.50
2022-11-05T08:27:03.863Z,27.75
2022-11-05T08:30:10.794Z,31.00
2022-11-05T08:33:25.553Z,25.25
2022-11-05T08:36:29.294Z,23.50
2022-11-05T08:39:33.036Z,27.25
2022-11-05T08:42:37.317Z,22.00
2022-11-05T08:45:43.670Z,24.00
2022-11-05T08:48:47.401Z,18.25
2022-11-05T08:51:51.414Z,22.00
2022-11-05T08:54:55.874Z,24.00
2022-11-05T08:58:02.149Z,26.50
2022-11-05T09:01:10.041Z,25.25
2022-11-05T09:04:16.129Z,28.00
2022-11-05T09:07:19.811Z,27.00
2022-11-05T09:10:24.349Z,40.75
2022-11-05T09:13:28.111Z,29.25
2022-11-05T09:16:36.810Z,25.50
2022-11-05T09:19:40.365Z,29.00
2022-11-05T09:22:45.105Z,30.50
2022-11-05T09:25:52.702Z,30.00
2022-11-05T09:28:57.027Z,25.00
2022-11-05T09:32:03.367Z,24.50
2022-11-05T09:35:08.370Z,19.75
2022-11-05T09:38:13.342Z,10.75
2022-11-05T09:41:28.022Z,28.00
2022-11-05T09:44:41.648Z,27.25
2022-11-05T09:47:54.674Z,26.25
2022-11-05T09:50:59.726Z,31.75
2022-11-05T09:54:06.195Z,31.00
2022-11-05T09:57:15.585Z,28.75
2022-11-05T10:00:20.162Z,26.00
2022-11-05T10:03:26.845Z,27.00
2022-11-05T10:06:32.163Z,24.50
2022-11-05T10:09:40.943Z,26.25
2022-11-05T10:12:49.098Z,18.25
2022-11-05T10:16:01.597Z,29.00
2022-11-05T10:19:10.997Z,32.25
2022-11-05T10:22:17.321Z,22.00
2022-11-05T10:25:23.249Z,27.50
2022-11-05T10:28:28.282Z,29.75
2022-11-05T10:31:37.381Z,30.25
2022-11-05T10:34:43.612Z,23.00
2022-11-05T10:37:48.018Z,33.25
2022-11-05T10:41:01.461Z,22.00
2022-11-05T10:44:29.523Z,23.25
2022-11-05T10:48:05.484Z,18.75
2022-11-05T10:51:11.274Z,15.00
2022-11-05T10:54:20.785Z,24.75
2022-11-05T10:57:35.091Z,17.50
2022-11-05T11:00:38.993Z,1.00
2022-11-05T11:03:45.682Z,20.00
2022-11-05T11:06:52.754Z,14.00
2022-11-05T11:09:56.564Z,14.25
2022-11-05T11:13:00.377Z,16.25
2022-11-05T11:16:16.329Z,17.25
2022-11-05T11:19:31.314Z,14.75
2022-11-05T11:22:39.601Z,17.75
2022-11-05T11:25:54.040Z,17.00
2022-11-05T11:29:01.981Z,15.25
2022-11-05T11:32:05.780Z,10.25
2022-11-05T11:35:21.519Z,8.00
2022-11-05T11:38:30.809Z,25.75
2022-11-05T11:41:39.661Z,10.75
2022-11-05T11:44:46.320Z,12.25
2022-11-05T11:47:51.450Z,10.50
2022-11-05T11:50:56.182Z,19.75
2022-11-05T11:54:02.758Z,16.00
2022-11-05T11:57:22.499Z,12.50
2022-11-05T12:00:27.510Z,10.00
2022-11-05T12:03:36.949Z,22.75
2022-11-05T12:06:49.120Z,2.00
2022-11-05T12:10:11.453Z,13.75
2022-11-05T12:13:36.727Z,11.75
2022-11-05T12:17:09.634Z,7.50
2022-11-05T12:20:42.080Z,21.75
2022-11-05T12:24:01.409Z,22.50
2022-11-05T12:27:23.236Z,16.50
2022-11-05T12:30:27.087Z,23.00
2022-11-05T12:34:02.337Z,18.25
2022-11-05T12:37:23.719Z,14.00
2022-11-05T12:40:57.129Z,13.50
2022-11-05T12:44:16.934Z,15.00
2022-11-05T12:47:37.967Z,26.25
2022-11-05T12:50:49.393Z,24.50
2022-11-05T12:54:02.345Z,9.75
2022-11-05T12:57:09.360Z,24.75
2022-11-05T13:00:21.917Z,27.50
2022-11-05T13:03:39.658Z,16.75
2022-11-05T13:06:52.829Z,21.75
2022-11-05T13:10:04.537Z,27.00
2022-11-05T13:13:15.327Z,10.00
2022-11-05T13:16:28.303Z,16.25
2022-11-05T13:19:37.481Z,18.50
2022-11-05T13:22:45.683Z,8.25
2022-11-05T13:25:53.978Z,11.00
2022-11-05T13:29:05.903Z,12.00
2022-11-05T13:32:21.050Z,8.00
2022-11-05T13:35:29.370Z,9.00
2022-11-05T13:38:51.806Z,7.25
2022-11-05T13:42:26.697Z,11.75
2022-11-05T13:46:29.738Z,8.00
2022-11-05T13:50:00.436Z,12.00
2022-11-05T13:53:33.739Z,7.75
2022-11-05T13:56:57.515Z,16.50
2022-11-05T14:00:12.880Z,24.00
2022-11-05T14:03:22.232Z,10.75
2022-11-05T14:06:30.659Z,12.00
2022-11-05T14:09:37.951Z,9.00
2022-11-05T14:12:42.879Z,8.50
2022-11-05T14:16:04.132Z,8.25
2022-11-05T14:19:44.914Z,9.00
2022-11-05T14:22:50.383Z,9.00
2022-11-05T14:25:59.766Z,13.00
2022-11-05T14:29:27.388Z,25.75
2022-11-05T14:32:45.169Z,9.25
2022-11-05T14:35:48.643Z,6.75
2022-11-05T14:39:01.392Z,9.50
2022-11-05T14:42:13.443Z,7.50
2022-11-05T14:45:28.485Z,19.25
2022-11-05T14:48:40.432Z,13.00
2022-11-05T14:51:47.066Z,28.25
2022-11-05T14:54:55.917Z,12.25
2022-11-05T14:58:28.320Z,11.50
2022-11-05T15:01:54.765Z,8.25
2022-11-05T15:05:35.188Z,12.25
2022-11-05T15:08:53.322Z,11.00
2022-11-05T15:12:09.190Z,31.00
2022-11-05T15:15:22.470Z,16.25
2022-11-05T15:18:48.379Z,15.00
2022-11-05T15:21:54.385Z,23.75
2022-11-05T15:24:58.612Z,11.25
2022-11-05T15:28:11.280Z,13.50
2022-11-05T15:31:27.617Z,18.75
2022-11-05T15:34:33.398Z,26.75
2022-11-05T15:37:37.361Z,32.75
2022-11-05T15:41:02.072Z,13.75
2022-11-05T15:44:07.376Z,15.25
2022-11-05T15:47:18.963Z,9.75
2022-11-05T15:50:22.836Z,9.75
2022-11-05T15:53:51.502Z,10.25
2022-11-05T15:57:01.649Z,16.00
2022-11-05T16:00:16.708Z,20.50
2022-11-05T16:03:29.381Z,13.50
2022-11-05T16:06:40.490Z,21.00
2022-11-05T16:09:52.779Z,16.25
2022-11-05T16:12:56.421Z,59.00
2022-11-05T16:16:04.194Z,13.75
2022-11-05T16:19:40.132Z,11.25
2022-11-05T16:22:48.445Z,11.75
2022-11-05T16:25:52.374Z,23.25
2022-11-05T16:28:56.794Z,12.50
2022-11-05T16:32:04.294Z,10.75
2022-11-05T16:35:18.103Z,12.50
2022-11-05T16:38:22.163Z,9.50
2022-11-05T16:41:27.497Z,9.00
2022-11-05T16:44:34.210Z,28.50
2022-11-05T16:47:39.457Z,17.00
2022-11-05T16:50:43.848Z,13.25
2022-11-05T16:53:48.460Z,12.25
2022-11-05T16:56:51.837Z,12.75
2022-11-05T16:59:57.058Z,11.50
2022-11-05T17:03:01.917Z,17.75
2022-11-05T17:06:06.207Z,13.00
2022-11-05T17:09:09.659Z,18.00
2022-11-05T17:12:13.661Z,13.75
2022-11-05T17:15:19.713Z,27.50
2022-11-05T17:18:25.656Z,17.00
2022-11-05T17:21:29.458Z,13.00
2022-11-05T17:24:33.119Z,22.50
2022-11-05T17:27:36.594Z,30.75
2022-11-05T17:30:41.860Z,13.25
2022-11-05T17:33:47.019Z,12.00
2022-11-05T17:36:50.996Z,15.50
2022-11-05T17:39:54.367Z,16.50
2022-11-05T17:42:58.129Z,24.25
2022-11-05T17:46:04.482Z,23.75
2022-11-05T17:49:10.171Z,13.00
2022-11-05T17:52:32.355Z,11.25
2022-11-05T17:55:36.427Z,15.75
2022-11-05T17:58:58.155Z,11.00
2022-11-05T18:02:02.121Z,28.50
2022-11-05T18:05:08.195Z,8.00
2022-11-05T18:08:12.773Z,13.50
2022-11-05T18:11:16.489Z,13.25
2022-11-05T18:14:24.065Z,36.75
2022-11-05T18:17:28.021Z,36.25
2022-11-05T18:20:33.034Z,49.75
2022-11-05T18:23:36.487Z,33.25
2022-11-05T18:26:40.146Z,18.00
2022-11-05T18:29:43.499Z,8.00
2022-11-05T18:32:48.045Z,10.75
2022-11-05T18:35:52.953Z,21.25
2022-11-05T18:38:58.586Z,28.25
2022-11-05T18:42:01.907Z,17.75
2022-11-05T18:45:06.748Z,15.00
2022-11-05T18:48:11.522Z,12.00
2022-11-05T18:51:16.922Z,16.00
2022-11-05T18:54:20.442Z,13.00
2022-11-05T18:57:24.465Z,40.75
2022-11-05T19:00:27.942Z,28.25
2022-11-05T19:03:31.970Z,20.00
2022-11-05T19:06:37.830Z,12.25
2022-11-05T19:09:41.732Z,23.25
2022-11-05T19:12:45.046Z,10.50
2022-11-05T19:15:48.656Z,11.00
2022-11-05T19:18:52.199Z,7.75
2022-11-05T19:21:57.812Z,8.75
2022-11-05T19:25:01.367Z,8.75
2022-11-05T19:28:05.866Z,10.50
2022-11-05T19:31:11.945Z,7.00
2022-11-05T19:34:17.091Z,8.25
2022-11-05T19:37:21.878Z,9.25
2022-11-05T19:40:25.570Z,7.75
2022-11-05T19:43:29.142Z,19.00
2022-11-05T19:46:33.954Z,17.25
2022-11-05T19:49:37.410Z,8.00
2022-11-05T19:52:42.540Z,9.25
2022-11-05T19:55:46.070Z,6.00
2022-11-05T19:59:08.444Z,9.00
2022-11-05T20:02:16.182Z,6.50
2022-11-05T20:05:20.425Z,8.25
2022-11-05T20:08:25.201Z,7.50
2022-11-05T20:11:28.972Z,7.50
2022-11-05T20:14:33.302Z,7.00
2022-11-05T20:17:39.186Z,6.00
2022-11-05T20:20:42.605Z,10.25
2022-11-05T20:23:48.485Z,12.25
2022-11-05T20:26:52.077Z,10.25
2022-11-05T20:29:55.751Z,6.75
2022-11-05T20:32:59.481Z,2.25
2022-11-05T20:36:05.333Z,3.75
2022-11-05T20:39:12.040Z,3.50
2022-11-05T20:42:15.779Z,7.75
2022-11-05T20:45:19.470Z,13.25
2022-11-05T20:48:23.089Z,7.25
2022-11-05T20:51:26.523Z,5.50
2022-11-05T20:54:31.573Z,6.75
2022-11-05T20:57:35.046Z,7.00
2022-11-05T21:00:39.178Z,6.00
2022-11-05T21:03:42.493Z,7.00
2022-11-05T21:06:46.121Z,6.25
2022-11-05T21:09:51.115Z,3.75
2022-11-05T21:12:54.818Z,4.00
2022-11-05T21:15:59.976Z,2.00
2022-11-05T21:19:03.675Z,3.50
2022-11-05T21:22:07.862Z,14.50
2022-11-05T21:25:14.202Z,9.00
2022-11-05T21:28:17.773Z,6.00
2022-11-05T21:31:21.479Z,17.50
2022-11-05T21:34:25.278Z,9.25
2022-11-05T21:37:29.199Z,8.25
2022-11-05T21:40:34.073Z,8.00
2022-11-05T21:43:39.466Z,15.00
2022-11-05T21:46:42.945Z,7.50
2022-11-05T21:49:46.963Z,14.25
2022-11-05T21:53:08.534Z,3.00
2022-11-05T21:56:36.892Z,3.50
2022-11-05T21:59:51.409Z,12.00
2022-11-05T22:02:55.315Z,9.25
2022-11-05T22:05:58.723Z,15.00
2022-11-05T22:09:02.519Z,3.50
2022-11-05T22:12:07.727Z,9.00
2022-11-05T22:15:12.102Z,9.75
2022-11-05T22:18:15.709Z,7.75
2022-11-05T22:21:20.046Z,9.25
2022-11-05T22:24:24.226Z,4.00
2022-11-05T22:27:29.506Z,5.00
2022-11-05T22:30:34.567Z,2.75
2022-11-05T22:33:38.418Z,3.75
2022-11-05T22:36:42.225Z,7.00
2022-11-05T22:39:46.229Z,4.50
2022-11-05T22:42:51.094Z,9.00
2022-11-05T22:45:54.757Z,6.00
2022-11-05T22:48:58.538Z,7.00
2022-11-05T22:52:02.254Z,2.00
2022-11-05T22:55:06.336Z,4.00
2022-11-05T22:58:11.939Z,4.00
2022-11-05T23:01:16.349Z,27.25
2022-11-05T23:04:20.348Z,7.75
2022-11-05T23:07:40.838Z,6.00
2022-11-05T23:11:02.196Z,12.00
2022-11-05T23:14:08.449Z,4.00
2022-11-05T23:17:29.283Z,6.25
2022-11-05T23:20:49.826Z,6.75
2022-11-05T23:24:05.248Z,7.00
2022-11-05T23:27:08.785Z,7.00
2022-11-05T23:30:18.545Z,4.00
2022-11-05T23:33:20.987Z,5.00
2022-11-05T23:36:42.077Z,6.00
2022-11-05T23:39:45.565Z,9.00
2022-11-05T23:43:07.274Z,3.00
2022-11-05T23:46:34.791Z,4.00
2022-11-05T23:49:38.512Z,6.50
2022-11-05T23:52:41.914Z,4.00
2022-11-05T23:55:45.707Z,5.00
2022-11-05T23:58:49.040Z,7.75
